sensor_id;sensor_type;location;lat;lon;timestamp;P1;durP1;ratioP1;P2;durP2;ratioP2
44189;SDS011;29856;52.144;5.430;2023-03-01T00:01:07;12.52;;;9.10;;
44189;SDS011;29856;52.144;5.430;2023-03-01T00:03:35;12.98;;;8.05;;
44189;SDS011;29856;52.144;5.430;2023-03-01T00:06:04;11.95;;;7.85;;
44189;SDS011;29856;52.144;5.430;2023-03-01T00:08:30;15.13;;;8.63;;
44189;SDS011;29856;52.144;5.430;2023-03-01T00:13:36;14.00;;;8.00;;
44189;SDS011;29856;52.144;5.430;2023-03-01T00:16:09;13.20;;;8.48;;
44189;SDS011;29856;52.144;5.430;2023-03-01T00:18:37;15.38;;;8.57;;
44189;SDS011;29856;52.144;5.430;2023-03-01T00:21:02;14.48;;;8.35;;
44189;SDS011;29856;52.144;5.430;2023-03-01T00:23:28;12.50;;;8.43;;
44189;SDS011;29856;52.144;5.430;2023-03-01T00:25:54;11.00;;;7.82;;
44189;SDS011;29856;52.144;5.430;2023-03-01T00:28:20;13.40;;;8.35;;
44189;SDS011;29856;52.144;5.430;2023-03-01T00:30:45;16.73;;;10.65;;
44189;SDS011;29856;52.144;5.430;2023-03-01T00:33:12;14.02;;;9.13;;
44189;SDS011;29856;52.144;5.430;2023-03-01T00:35:37;16.15;;;9.70;;
44189;SDS011;29856;52.144;5.430;2023-03-01T00:38:03;13.82;;;9.00;;
44189;SDS011;29856;52.144;5.430;2023-03-01T00:40:29;12.43;;;8.68;;
44189;SDS011;29856;52.144;5.430;2023-03-01T00:42:56;13.98;;;9.20;;
44189;SDS011;29856;52.144;5.430;2023-03-01T00:45:22;11.55;;;7.68;;
44189;SDS011;29856;52.144;5.430;2023-03-01T00:47:48;15.73;;;8.57;;
44189;SDS011;29856;52.144;5.430;2023-03-01T00:50:14;15.95;;;9.45;;
44189;SDS011;29856;52.144;5.430;2023-03-01T00:52:40;13.50;;;8.40;;
44189;SDS011;29856;52.144;5.430;2023-03-01T00:55:06;13.93;;;9.93;;
44189;SDS011;29856;52.144;5.430;2023-03-01T00:57:32;14.95;;;8.52;;
44189;SDS011;29856;52.144;5.430;2023-03-01T00:59:57;13.52;;;8.02;;
44189;SDS011;29856;52.144;5.430;2023-03-01T01:02:23;11.90;;;7.68;;
44189;SDS011;29856;52.144;5.430;2023-03-01T01:04:48;10.93;;;7.70;;
44189;SDS011;29856;52.144;5.430;2023-03-01T01:07:14;15.57;;;8.35;;
44189;SDS011;29856;52.144;5.430;2023-03-01T01:09:39;12.85;;;8.60;;
44189;SDS011;29856;52.144;5.430;2023-03-01T01:12:05;13.57;;;8.43;;
44189;SDS011;29856;52.144;5.430;2023-03-01T01:14:31;14.82;;;9.77;;
44189;SDS011;29856;52.144;5.430;2023-03-01T01:16:56;12.75;;;8.40;;
44189;SDS011;29856;52.144;5.430;2023-03-01T01:19:28;16.50;;;9.88;;
44189;SDS011;29856;52.144;5.430;2023-03-01T01:21:56;16.02;;;10.10;;
44189;SDS011;29856;52.144;5.430;2023-03-01T01:24:21;15.35;;;9.93;;
44189;SDS011;29856;52.144;5.430;2023-03-01T01:26:47;15.32;;;10.23;;
44189;SDS011;29856;52.144;5.430;2023-03-01T01:29:13;16.17;;;9.32;;
44189;SDS011;29856;52.144;5.430;2023-03-01T01:31:39;14.52;;;10.00;;
44189;SDS011;29856;52.144;5.430;2023-03-01T01:34:07;15.52;;;9.95;;
44189;SDS011;29856;52.144;5.430;2023-03-01T01:36:36;17.85;;;10.70;;
44189;SDS011;29856;52.144;5.430;2023-03-01T01:39:02;16.48;;;11.63;;
44189;SDS011;29856;52.144;5.430;2023-03-01T01:41:28;14.02;;;10.05;;
44189;SDS011;29856;52.144;5.430;2023-03-01T01:44:10;14.80;;;9.80;;
44189;SDS011;29856;52.144;5.430;2023-03-01T01:47:00;22.20;;;10.95;;
44189;SDS011;29856;52.144;5.430;2023-03-01T01:49:46;19.92;;;11.15;;
44189;SDS011;29856;52.144;5.430;2023-03-01T01:52:22;19.08;;;10.52;;
44189;SDS011;29856;52.144;5.430;2023-03-01T01:54:53;17.33;;;10.13;;
44189;SDS011;29856;52.144;5.430;2023-03-01T01:57:30;13.40;;;10.05;;
44189;SDS011;29856;52.144;5.430;2023-03-01T02:00:04;13.30;;;8.68;;
44189;SDS011;29856;52.144;5.430;2023-03-01T02:02:36;15.85;;;11.05;;
44189;SDS011;29856;52.144;5.430;2023-03-01T02:05:09;16.13;;;10.13;;
44189;SDS011;29856;52.144;5.430;2023-03-01T02:07:39;16.85;;;11.65;;
44189;SDS011;29856;52.144;5.430;2023-03-01T02:10:05;16.52;;;10.65;;
44189;SDS011;29856;52.144;5.430;2023-03-01T02:12:31;13.45;;;9.30;;
44189;SDS011;29856;52.144;5.430;2023-03-01T02:14:57;14.55;;;9.52;;
44189;SDS011;29856;52.144;5.430;2023-03-01T02:17:23;14.75;;;9.38;;
44189;SDS011;29856;52.144;5.430;2023-03-01T02:20:07;14.15;;;9.30;;
44189;SDS011;29856;52.144;5.430;2023-03-01T02:22:44;12.35;;;10.02;;
44189;SDS011;29856;52.144;5.430;2023-03-01T02:30:38;16.85;;;10.20;;
44189;SDS011;29856;52.144;5.430;2023-03-01T02:33:04;16.17;;;9.93;;
44189;SDS011;29856;52.144;5.430;2023-03-01T02:35:30;14.68;;;9.90;;
44189;SDS011;29856;52.144;5.430;2023-03-01T02:37:58;13.48;;;9.73;;
44189;SDS011;29856;52.144;5.430;2023-03-01T02:40:26;20.83;;;10.85;;
44189;SDS011;29856;52.144;5.430;2023-03-01T02:42:55;12.95;;;8.60;;
44189;SDS011;29856;52.144;5.430;2023-03-01T02:45:23;15.40;;;9.40;;
44189;SDS011;29856;52.144;5.430;2023-03-01T02:47:53;18.55;;;12.52;;
44189;SDS011;29856;52.144;5.430;2023-03-01T02:50:33;16.88;;;10.60;;
44189;SDS011;29856;52.144;5.430;2023-03-01T02:53:39;17.90;;;11.13;;
44189;SDS011;29856;52.144;5.430;2023-03-01T02:56:13;12.75;;;9.50;;
44189;SDS011;29856;52.144;5.430;2023-03-01T02:58:41;12.65;;;9.30;;
44189;SDS011;29856;52.144;5.430;2023-03-01T03:01:08;15.13;;;10.15;;
44189;SDS011;29856;52.144;5.430;2023-03-01T03:03:33;13.55;;;9.63;;
44189;SDS011;29856;52.144;5.430;2023-03-01T03:05:59;16.75;;;11.70;;
44189;SDS011;29856;52.144;5.430;2023-03-01T03:08:24;15.82;;;11.15;;
44189;SDS011;29856;52.144;5.430;2023-03-01T03:10:50;15.38;;;10.25;;
44189;SDS011;29856;52.144;5.430;2023-03-01T03:13:15;17.45;;;11.90;;
44189;SDS011;29856;52.144;5.430;2023-03-01T03:15:41;15.30;;;9.65;;
44189;SDS011;29856;52.144;5.430;2023-03-01T03:18:09;19.13;;;11.77;;
44189;SDS011;29856;52.144;5.430;2023-03-01T03:20:39;18.20;;;10.25;;
44189;SDS011;29856;52.144;5.430;2023-03-01T03:23:05;16.70;;;11.48;;
44189;SDS011;29856;52.144;5.430;2023-03-01T03:25:31;18.33;;;12.07;;
44189;SDS011;29856;52.144;5.430;2023-03-01T03:27:57;14.63;;;10.75;;
44189;SDS011;29856;52.144;5.430;2023-03-01T03:30:27;20.08;;;11.73;;
44189;SDS011;29856;52.144;5.430;2023-03-01T03:32:55;21.50;;;12.75;;
44189;SDS011;29856;52.144;5.430;2023-03-01T03:35:22;18.90;;;12.32;;
44189;SDS011;29856;52.144;5.430;2023-03-01T03:37:52;15.48;;;10.98;;
44189;SDS011;29856;52.144;5.430;2023-03-01T03:40:18;15.82;;;10.93;;
44189;SDS011;29856;52.144;5.430;2023-03-01T03:42:43;18.83;;;13.05;;
44189;SDS011;29856;52.144;5.430;2023-03-01T03:45:09;16.17;;;11.23;;
44189;SDS011;29856;52.144;5.430;2023-03-01T03:47:34;21.23;;;12.48;;
44189;SDS011;29856;52.144;5.430;2023-03-01T03:50:00;15.57;;;9.98;;
44189;SDS011;29856;52.144;5.430;2023-03-01T03:52:25;15.82;;;9.90;;
44189;SDS011;29856;52.144;5.430;2023-03-01T03:54:51;18.63;;;12.52;;
44189;SDS011;29856;52.144;5.430;2023-03-01T03:57:16;16.88;;;11.27;;
44189;SDS011;29856;52.144;5.430;2023-03-01T03:59:41;17.10;;;11.77;;
44189;SDS011;29856;52.144;5.430;2023-03-01T04:02:07;19.00;;;12.60;;
44189;SDS011;29856;52.144;5.430;2023-03-01T04:04:32;18.00;;;12.77;;
44189;SDS011;29856;52.144;5.430;2023-03-01T04:06:58;19.58;;;12.13;;
44189;SDS011;29856;52.144;5.430;2023-03-01T04:09:23;21.70;;;13.27;;
44189;SDS011;29856;52.144;5.430;2023-03-01T04:11:49;20.05;;;13.35;;
44189;SDS011;29856;52.144;5.430;2023-03-01T04:14:14;19.25;;;12.40;;
44189;SDS011;29856;52.144;5.430;2023-03-01T04:16:40;23.20;;;14.30;;
44189;SDS011;29856;52.144;5.430;2023-03-01T04:19:05;20.08;;;13.65;;
44189;SDS011;29856;52.144;5.430;2023-03-01T04:21:30;19.88;;;12.88;;
44189;SDS011;29856;52.144;5.430;2023-03-01T04:23:56;20.40;;;13.45;;
44189;SDS011;29856;52.144;5.430;2023-03-01T04:26:21;20.80;;;12.52;;
44189;SDS011;29856;52.144;5.430;2023-03-01T04:28:47;20.58;;;12.73;;
44189;SDS011;29856;52.144;5.430;2023-03-01T04:31:14;19.83;;;13.57;;
44189;SDS011;29856;52.144;5.430;2023-03-01T04:33:49;14.60;;;10.25;;
44189;SDS011;29856;52.144;5.430;2023-03-01T04:36:17;19.48;;;10.95;;
44189;SDS011;29856;52.144;5.430;2023-03-01T04:38:44;19.15;;;12.38;;
44189;SDS011;29856;52.144;5.430;2023-03-01T04:41:10;17.33;;;12.90;;
44189;SDS011;29856;52.144;5.430;2023-03-01T04:43:36;20.80;;;12.60;;
44189;SDS011;29856;52.144;5.430;2023-03-01T04:46:04;24.73;;;15.30;;
44189;SDS011;29856;52.144;5.430;2023-03-01T04:48:32;15.98;;;12.20;;
44189;SDS011;29856;52.144;5.430;2023-03-01T04:50:58;14.02;;;10.55;;
44189;SDS011;29856;52.144;5.430;2023-03-01T04:53:24;16.98;;;10.65;;
44189;SDS011;29856;52.144;5.430;2023-03-01T04:55:50;13.77;;;10.15;;
44189;SDS011;29856;52.144;5.430;2023-03-01T04:58:16;19.80;;;12.68;;
44189;SDS011;29856;52.144;5.430;2023-03-01T05:00:41;16.85;;;12.00;;
44189;SDS011;29856;52.144;5.430;2023-03-01T05:03:07;20.20;;;12.02;;
44189;SDS011;29856;52.144;5.430;2023-03-01T05:05:34;23.23;;;12.63;;
44189;SDS011;29856;52.144;5.430;2023-03-01T05:08:02;14.60;;;9.70;;
44189;SDS011;29856;52.144;5.430;2023-03-01T05:10:30;17.42;;;11.10;;
44189;SDS011;29856;52.144;5.430;2023-03-01T05:12:57;17.63;;;11.32;;
44189;SDS011;29856;52.144;5.430;2023-03-01T05:15:27;17.50;;;12.70;;
44189;SDS011;29856;52.144;5.430;2023-03-01T05:17:55;18.80;;;14.60;;
44189;SDS011;29856;52.144;5.430;2023-03-01T05:20:21;25.23;;;14.60;;
44189;SDS011;29856;52.144;5.430;2023-03-01T05:22:47;21.17;;;13.88;;
44189;SDS011;29856;52.144;5.430;2023-03-01T05:25:13;18.15;;;12.85;;
44189;SDS011;29856;52.144;5.430;2023-03-01T05:27:38;22.70;;;14.82;;
44189;SDS011;29856;52.144;5.430;2023-03-01T05:30:04;19.92;;;13.48;;
44189;SDS011;29856;52.144;5.430;2023-03-01T05:32:30;17.15;;;13.15;;
44189;SDS011;29856;52.144;5.430;2023-03-01T05:34:55;18.50;;;14.35;;
44189;SDS011;29856;52.144;5.430;2023-03-01T05:37:21;17.52;;;13.73;;
44189;SDS011;29856;52.144;5.430;2023-03-01T05:39:46;21.50;;;15.10;;
44189;SDS011;29856;52.144;5.430;2023-03-01T05:42:12;20.30;;;14.13;;
44189;SDS011;29856;52.144;5.430;2023-03-01T05:44:37;19.17;;;14.32;;
44189;SDS011;29856;52.144;5.430;2023-03-01T05:47:03;23.95;;;15.20;;
44189;SDS011;29856;52.144;5.430;2023-03-01T05:49:28;21.65;;;14.05;;
44189;SDS011;29856;52.144;5.430;2023-03-01T05:51:54;21.90;;;15.07;;
44189;SDS011;29856;52.144;5.430;2023-03-01T05:54:20;21.27;;;14.02;;
44189;SDS011;29856;52.144;5.430;2023-03-01T05:56:46;19.70;;;13.52;;
44189;SDS011;29856;52.144;5.430;2023-03-01T05:59:12;19.05;;;11.75;;
44189;SDS011;29856;52.144;5.430;2023-03-01T06:01:38;18.33;;;12.45;;
44189;SDS011;29856;52.144;5.430;2023-03-01T06:04:03;20.00;;;12.75;;
44189;SDS011;29856;52.144;5.430;2023-03-01T06:06:29;21.13;;;11.80;;
44189;SDS011;29856;52.144;5.430;2023-03-01T06:08:58;17.45;;;11.63;;
44189;SDS011;29856;52.144;5.430;2023-03-01T06:11:23;20.80;;;13.95;;
44189;SDS011;29856;52.144;5.430;2023-03-01T06:13:48;20.05;;;14.07;;
44189;SDS011;29856;52.144;5.430;2023-03-01T06:16:14;20.40;;;13.48;;
44189;SDS011;29856;52.144;5.430;2023-03-01T06:18:40;15.80;;;12.52;;
44189;SDS011;29856;52.144;5.430;2023-03-01T06:21:06;15.90;;;11.18;;
44189;SDS011;29856;52.144;5.430;2023-03-01T06:23:32;21.70;;;15.63;;
44189;SDS011;29856;52.144;5.430;2023-03-01T06:25:59;24.63;;;15.55;;
44189;SDS011;29856;52.144;5.430;2023-03-01T06:28:25;24.30;;;16.20;;
44189;SDS011;29856;52.144;5.430;2023-03-01T06:30:50;23.10;;;15.05;;
44189;SDS011;29856;52.144;5.430;2023-03-01T06:33:16;25.08;;;16.48;;
44189;SDS011;29856;52.144;5.430;2023-03-01T06:35:42;20.08;;;13.55;;
44189;SDS011;29856;52.144;5.430;2023-03-01T06:38:08;22.17;;;14.45;;
44189;SDS011;29856;52.144;5.430;2023-03-01T06:40:34;18.30;;;13.18;;
44189;SDS011;29856;52.144;5.430;2023-03-01T06:42:59;21.65;;;14.10;;
44189;SDS011;29856;52.144;5.430;2023-03-01T06:45:25;17.92;;;12.88;;
44189;SDS011;29856;52.144;5.430;2023-03-01T06:47:50;16.88;;;12.98;;
44189;SDS011;29856;52.144;5.430;2023-03-01T06:50:16;24.05;;;14.95;;
44189;SDS011;29856;52.144;5.430;2023-03-01T06:52:42;19.42;;;13.43;;
44189;SDS011;29856;52.144;5.430;2023-03-01T06:55:08;17.73;;;12.52;;
44189;SDS011;29856;52.144;5.430;2023-03-01T06:57:34;18.83;;;12.57;;
44189;SDS011;29856;52.144;5.430;2023-03-01T06:59:59;18.42;;;12.00;;
44189;SDS011;29856;52.144;5.430;2023-03-01T07:02:25;24.33;;;14.52;;
44189;SDS011;29856;52.144;5.430;2023-03-01T07:04:50;21.45;;;14.45;;
44189;SDS011;29856;52.144;5.430;2023-03-01T07:07:16;26.42;;;16.98;;
44189;SDS011;29856;52.144;5.430;2023-03-01T07:09:42;25.05;;;16.02;;
44189;SDS011;29856;52.144;5.430;2023-03-01T07:12:07;20.17;;;15.25;;
44189;SDS011;29856;52.144;5.430;2023-03-01T07:14:33;25.08;;;14.30;;
44189;SDS011;29856;52.144;5.430;2023-03-01T07:16:58;23.20;;;16.42;;
44189;SDS011;29856;52.144;5.430;2023-03-01T07:19:24;26.08;;;18.15;;
44189;SDS011;29856;52.144;5.430;2023-03-01T07:21:49;22.55;;;14.57;;
44189;SDS011;29856;52.144;5.430;2023-03-01T07:24:15;21.83;;;16.27;;
44189;SDS011;29856;52.144;5.430;2023-03-01T07:26:40;21.77;;;14.93;;
44189;SDS011;29856;52.144;5.430;2023-03-01T07:29:06;21.77;;;15.55;;
44189;SDS011;29856;52.144;5.430;2023-03-01T07:31:32;25.55;;;15.82;;
44189;SDS011;29856;52.144;5.430;2023-03-01T07:33:58;20.40;;;14.82;;
44189;SDS011;29856;52.144;5.430;2023-03-01T07:36:24;28.08;;;17.85;;
44189;SDS011;29856;52.144;5.430;2023-03-01T07:38:49;24.75;;;16.27;;
44189;SDS011;29856;52.144;5.430;2023-03-01T07:41:15;23.60;;;16.70;;
44189;SDS011;29856;52.144;5.430;2023-03-01T07:43:41;24.15;;;16.85;;
44189;SDS011;29856;52.144;5.430;2023-03-01T07:46:07;26.80;;;17.48;;
44189;SDS011;29856;52.144;5.430;2023-03-01T07:48:33;24.52;;;16.95;;
44189;SDS011;29856;52.144;5.430;2023-03-01T07:50:59;21.23;;;15.93;;
44189;SDS011;29856;52.144;5.430;2023-03-01T07:53:28;23.88;;;16.67;;
44189;SDS011;29856;52.144;5.430;2023-03-01T07:56:04;21.50;;;15.15;;
44189;SDS011;29856;52.144;5.430;2023-03-01T07:58:33;19.65;;;14.13;;
44189;SDS011;29856;52.144;5.430;2023-03-01T08:01:03;23.85;;;14.88;;
44189;SDS011;29856;52.144;5.430;2023-03-01T08:03:30;26.05;;;16.00;;
44189;SDS011;29856;52.144;5.430;2023-03-01T08:05:55;23.50;;;15.20;;
44189;SDS011;29856;52.144;5.430;2023-03-01T08:08:21;19.52;;;14.95;;
44189;SDS011;29856;52.144;5.430;2023-03-01T08:10:46;19.45;;;12.38;;
44189;SDS011;29856;52.144;5.430;2023-03-01T08:13:11;25.55;;;16.33;;
44189;SDS011;29856;52.144;5.430;2023-03-01T08:15:37;21.00;;;14.38;;
44189;SDS011;29856;52.144;5.430;2023-03-01T08:18:02;18.10;;;13.98;;
44189;SDS011;29856;52.144;5.430;2023-03-01T08:20:28;24.15;;;14.23;;
44189;SDS011;29856;52.144;5.430;2023-03-01T08:22:53;20.30;;;13.52;;
44189;SDS011;29856;52.144;5.430;2023-03-01T08:25:19;20.63;;;13.52;;
44189;SDS011;29856;52.144;5.430;2023-03-01T08:27:44;20.08;;;13.77;;
44189;SDS011;29856;52.144;5.430;2023-03-01T08:30:10;19.27;;;12.52;;
44189;SDS011;29856;52.144;5.430;2023-03-01T08:32:37;15.52;;;11.07;;
44189;SDS011;29856;52.144;5.430;2023-03-01T08:35:03;18.42;;;12.32;;
44189;SDS011;29856;52.144;5.430;2023-03-01T08:37:29;15.90;;;10.32;;
44189;SDS011;29856;52.144;5.430;2023-03-01T08:39:54;15.80;;;11.57;;
44189;SDS011;29856;52.144;5.430;2023-03-01T08:42:20;16.35;;;10.75;;
44189;SDS011;29856;52.144;5.430;2023-03-01T08:44:45;16.13;;;10.38;;
44189;SDS011;29856;52.144;5.430;2023-03-01T08:47:10;15.05;;;10.30;;
44189;SDS011;29856;52.144;5.430;2023-03-01T08:49:36;12.63;;;8.63;;
44189;SDS011;29856;52.144;5.430;2023-03-01T08:52:02;11.18;;;8.35;;
44189;SDS011;29856;52.144;5.430;2023-03-01T08:54:27;11.05;;;7.97;;
44189;SDS011;29856;52.144;5.430;2023-03-01T08:56:53;12.45;;;8.52;;
44189;SDS011;29856;52.144;5.430;2023-03-01T08:59:18;8.82;;;7.35;;
44189;SDS011;29856;52.144;5.430;2023-03-01T09:01:44;11.75;;;8.20;;
44189;SDS011;29856;52.144;5.430;2023-03-01T09:04:10;12.52;;;8.02;;
44189;SDS011;29856;52.144;5.430;2023-03-01T09:06:36;12.57;;;7.72;;
44189;SDS011;29856;52.144;5.430;2023-03-01T09:09:03;10.02;;;7.47;;
44189;SDS011;29856;52.144;5.430;2023-03-01T09:11:29;9.45;;;6.65;;
44189;SDS011;29856;52.144;5.430;2023-03-01T09:13:55;12.38;;;7.22;;
44189;SDS011;29856;52.144;5.430;2023-03-01T09:16:21;8.88;;;6.22;;
44189;SDS011;29856;52.144;5.430;2023-03-01T09:18:51;8.70;;;6.00;;
44189;SDS011;29856;52.144;5.430;2023-03-01T09:21:19;10.95;;;6.43;;
44189;SDS011;29856;52.144;5.430;2023-03-01T09:23:46;8.35;;;6.43;;
44189;SDS011;29856;52.144;5.430;2023-03-01T09:26:13;10.77;;;6.25;;
44189;SDS011;29856;52.144;5.430;2023-03-01T09:28:49;8.80;;;5.35;;
44189;SDS011;29856;52.144;5.430;2023-03-01T09:31:18;9.77;;;5.90;;
44189;SDS011;29856;52.144;5.430;2023-03-01T09:33:48;8.00;;;5.85;;
44189;SDS011;29856;52.144;5.430;2023-03-01T09:36:16;10.35;;;6.40;;
44189;SDS011;29856;52.144;5.430;2023-03-01T09:38:44;8.73;;;5.53;;
44189;SDS011;29856;52.144;5.430;2023-03-01T09:46:42;8.35;;;5.35;;
44189;SDS011;29856;52.144;5.430;2023-03-01T09:49:17;8.02;;;5.10;;
44189;SDS011;29856;52.144;5.430;2023-03-01T09:54:55;9.48;;;4.50;;
44189;SDS011;29856;52.144;5.430;2023-03-01T09:57:26;6.53;;;4.50;;
44189;SDS011;29856;52.144;5.430;2023-03-01T10:05:46;8.82;;;3.83;;
44189;SDS011;29856;52.144;5.430;2023-03-01T10:08:10;6.90;;;3.83;;
44189;SDS011;29856;52.144;5.430;2023-03-01T10:10:57;6.28;;;3.90;;
44189;SDS011;29856;52.144;5.430;2023-03-01T10:16:01;6.60;;;3.90;;
44189;SDS011;29856;52.144;5.430;2023-03-01T10:18:48;8.07;;;3.70;;
44189;SDS011;29856;52.144;5.430;2023-03-01T10:21:20;5.90;;;3.47;;
44189;SDS011;29856;52.144;5.430;2023-03-01T10:23:46;6.00;;;3.65;;
44189;SDS011;29856;52.144;5.430;2023-03-01T10:31:22;5.80;;;3.85;;
44189;SDS011;29856;52.144;5.430;2023-03-01T10:33:51;6.03;;;4.00;;
44189;SDS011;29856;52.144;5.430;2023-03-01T10:36:17;6.40;;;4.10;;
44189;SDS011;29856;52.144;5.430;2023-03-01T10:38:52;8.65;;;4.47;;
44189;SDS011;29856;52.144;5.430;2023-03-01T10:41:20;5.82;;;4.15;;
44189;SDS011;29856;52.144;5.430;2023-03-01T10:46:27;6.50;;;3.85;;
44189;SDS011;29856;52.144;5.430;2023-03-01T10:49:07;6.78;;;3.92;;
44189;SDS011;29856;52.144;5.430;2023-03-01T10:51:37;4.93;;;3.58;;
44189;SDS011;29856;52.144;5.430;2023-03-01T10:54:25;4.03;;;2.83;;
44189;SDS011;29856;52.144;5.430;2023-03-01T10:56:57;6.93;;;3.30;;
44189;SDS011;29856;52.144;5.430;2023-03-01T10:59:31;5.13;;;2.83;;
44189;SDS011;29856;52.144;5.430;2023-03-01T11:02:40;8.00;;;3.60;;
44189;SDS011;29856;52.144;5.430;2023-03-01T11:07:26;5.35;;;2.50;;
44189;SDS011;29856;52.144;5.430;2023-03-01T11:09:52;4.97;;;3.05;;
44189;SDS011;29856;52.144;5.430;2023-03-01T11:12:17;5.25;;;3.22;;
44189;SDS011;29856;52.144;5.430;2023-03-01T11:14:47;4.57;;;3.08;;
44189;SDS011;29856;52.144;5.430;2023-03-01T11:17:21;6.47;;;3.45;;
44189;SDS011;29856;52.144;5.430;2023-03-01T11:22:39;4.03;;;2.90;;
44189;SDS011;29856;52.144;5.430;2023-03-01T11:25:13;4.80;;;2.63;;
44189;SDS011;29856;52.144;5.430;2023-03-01T11:27:40;5.43;;;2.70;;
44189;SDS011;29856;52.144;5.430;2023-03-01T11:32:50;3.72;;;2.97;;
44189;SDS011;29856;52.144;5.430;2023-03-01T11:35:28;3.03;;;2.63;;
44189;SDS011;29856;52.144;5.430;2023-03-01T11:40:27;4.25;;;2.45;;
44189;SDS011;29856;52.144;5.430;2023-03-01T11:43:23;5.28;;;3.20;;
44189;SDS011;29856;52.144;5.430;2023-03-01T11:51:04;7.72;;;3.13;;
44189;SDS011;29856;52.144;5.430;2023-03-01T11:53:39;4.47;;;2.90;;
44189;SDS011;29856;52.144;5.430;2023-03-01T11:56:37;4.97;;;3.50;;
44189;SDS011;29856;52.144;5.430;2023-03-01T11:59:10;6.85;;;3.33;;
44189;SDS011;29856;52.144;5.430;2023-03-01T12:10:00;4.55;;;3.05;;
44189;SDS011;29856;52.144;5.430;2023-03-01T12:12:45;5.80;;;3.30;;
44189;SDS011;29856;52.144;5.430;2023-03-01T12:23:45;4.75;;;3.20;;
44189;SDS011;29856;52.144;5.430;2023-03-01T12:26:33;5.35;;;3.35;;
44189;SDS011;29856;52.144;5.430;2023-03-01T12:29:23;4.53;;;3.33;;
44189;SDS011;29856;52.144;5.430;2023-03-01T12:35:20;4.57;;;3.10;;
44189;SDS011;29856;52.144;5.430;2023-03-01T12:37:58;5.40;;;3.25;;
44189;SDS011;29856;52.144;5.430;2023-03-01T12:46:25;6.00;;;3.28;;
44189;SDS011;29856;52.144;5.430;2023-03-01T12:51:36;8.00;;;4.03;;
44189;SDS011;29856;52.144;5.430;2023-03-01T12:54:16;5.10;;;3.08;;
44189;SDS011;29856;52.144;5.430;2023-03-01T12:56:48;8.50;;;5.85;;
44189;SDS011;29856;52.144;5.430;2023-03-01T13:04:22;6.25;;;3.40;;
44189;SDS011;29856;52.144;5.430;2023-03-01T13:07:02;6.53;;;3.90;;
44189;SDS011;29856;52.144;5.430;2023-03-01T13:09:51;6.20;;;3.42;;
44189;SDS011;29856;52.144;5.430;2023-03-01T13:17:46;4.38;;;3.40;;
44189;SDS011;29856;52.144;5.430;2023-03-01T13:20:13;4.90;;;3.60;;
44189;SDS011;29856;52.144;5.430;2023-03-01T13:22:41;4.95;;;3.33;;
44189;SDS011;29856;52.144;5.430;2023-03-01T13:25:14;4.85;;;3.10;;
44189;SDS011;29856;52.144;5.430;2023-03-01T13:27:43;5.35;;;3.90;;
44189;SDS011;29856;52.144;5.430;2023-03-01T13:35:50;6.57;;;3.50;;
44189;SDS011;29856;52.144;5.430;2023-03-01T13:44:11;6.13;;;3.50;;
44189;SDS011;29856;52.144;5.430;2023-03-01T13:46:51;6.13;;;3.95;;
44189;SDS011;29856;52.144;5.430;2023-03-01T13:49:20;5.30;;;3.92;;
44189;SDS011;29856;52.144;5.430;2023-03-01T13:51:49;4.85;;;3.78;;
44189;SDS011;29856;52.144;5.430;2023-03-01T13:54:16;5.93;;;3.47;;
44189;SDS011;29856;52.144;5.430;2023-03-01T13:56:55;5.63;;;3.72;;
44189;SDS011;29856;52.144;5.430;2023-03-01T13:59:22;4.90;;;3.40;;
44189;SDS011;29856;52.144;5.430;2023-03-01T14:01:52;6.15;;;3.40;;
44189;SDS011;29856;52.144;5.430;2023-03-01T14:04:23;5.65;;;3.40;;
44189;SDS011;29856;52.144;5.430;2023-03-01T14:07:13;4.18;;;3.33;;
44189;SDS011;29856;52.144;5.430;2023-03-01T14:09:42;5.55;;;3.47;;
44189;SDS011;29856;52.144;5.430;2023-03-01T14:17:25;4.35;;;3.15;;
44189;SDS011;29856;52.144;5.430;2023-03-01T14:19:56;3.97;;;3.35;;
44189;SDS011;29856;52.144;5.430;2023-03-01T14:22:25;7.15;;;3.35;;
44189;SDS011;29856;52.144;5.430;2023-03-01T14:24:59;4.97;;;3.20;;
44189;SDS011;29856;52.144;5.430;2023-03-01T14:27:35;4.47;;;3.33;;
44189;SDS011;29856;52.144;5.430;2023-03-01T14:30:10;4.97;;;3.45;;
44189;SDS011;29856;52.144;5.430;2023-03-01T14:32:41;5.22;;;2.95;;
44189;SDS011;29856;52.144;5.430;2023-03-01T14:35:20;4.63;;;3.33;;
44189;SDS011;29856;52.144;5.430;2023-03-01T14:37:47;5.28;;;3.38;;
44189;SDS011;29856;52.144;5.430;2023-03-01T14:40:20;5.03;;;3.58;;
44189;SDS011;29856;52.144;5.430;2023-03-01T14:42:50;6.05;;;3.05;;
44189;SDS011;29856;52.144;5.430;2023-03-01T14:45:18;6.53;;;3.47;;
44189;SDS011;29856;52.144;5.430;2023-03-01T14:47:43;5.72;;;3.45;;
44189;SDS011;29856;52.144;5.430;2023-03-01T14:52:39;6.95;;;3.20;;
44189;SDS011;29856;52.144;5.430;2023-03-01T14:55:12;4.78;;;3.47;;
44189;SDS011;29856;52.144;5.430;2023-03-01T14:57:43;7.93;;;3.80;;
44189;SDS011;29856;52.144;5.430;2023-03-01T15:00:10;5.38;;;3.75;;
44189;SDS011;29856;52.144;5.430;2023-03-01T15:02:42;7.68;;;3.53;;
44189;SDS011;29856;52.144;5.430;2023-03-01T15:05:08;6.60;;;3.47;;
44189;SDS011;29856;52.144;5.430;2023-03-01T15:07:38;6.38;;;3.38;;
44189;SDS011;29856;52.144;5.430;2023-03-01T15:10:12;5.85;;;3.22;;
44189;SDS011;29856;52.144;5.430;2023-03-01T15:12:45;6.32;;;3.72;;
44189;SDS011;29856;52.144;5.430;2023-03-01T15:17:48;5.53;;;3.88;;
44189;SDS011;29856;52.144;5.430;2023-03-01T15:20:18;5.53;;;3.50;;
44189;SDS011;29856;52.144;5.430;2023-03-01T15:22:44;5.22;;;3.53;;
44189;SDS011;29856;52.144;5.430;2023-03-01T15:25:17;4.35;;;3.60;;
44189;SDS011;29856;52.144;5.430;2023-03-01T15:27:45;5.45;;;3.83;;
44189;SDS011;29856;52.144;5.430;2023-03-01T15:30:19;4.47;;;3.58;;
44189;SDS011;29856;52.144;5.430;2023-03-01T15:35:43;4.88;;;3.70;;
44189;SDS011;29856;52.144;5.430;2023-03-01T15:38:27;8.25;;;3.78;;
44189;SDS011;29856;52.144;5.430;2023-03-01T15:41:01;7.00;;;4.43;;
44189;SDS011;29856;52.144;5.430;2023-03-01T15:43:44;6.85;;;3.97;;
44189;SDS011;29856;52.144;5.430;2023-03-01T15:48:45;10.65;;;6.97;;
44189;SDS011;29856;52.144;5.430;2023-03-01T15:51:12;7.32;;;3.70;;
44189;SDS011;29856;52.144;5.430;2023-03-01T15:53:38;8.70;;;4.28;;
44189;SDS011;29856;52.144;5.430;2023-03-01T15:56:04;6.25;;;4.30;;
44189;SDS011;29856;52.144;5.430;2023-03-01T15:58:29;7.18;;;4.45;;
44189;SDS011;29856;52.144;5.430;2023-03-01T16:00:55;7.18;;;4.13;;
44189;SDS011;29856;52.144;5.430;2023-03-01T16:03:21;5.80;;;3.67;;
44189;SDS011;29856;52.144;5.430;2023-03-01T16:05:47;9.05;;;4.65;;
44189;SDS011;29856;52.144;5.430;2023-03-01T16:08:14;7.15;;;4.30;;
44189;SDS011;29856;52.144;5.430;2023-03-01T16:10:40;7.57;;;3.95;;
44189;SDS011;29856;52.144;5.430;2023-03-01T16:13:07;5.63;;;3.92;;
44189;SDS011;29856;52.144;5.430;2023-03-01T16:15:33;6.15;;;4.07;;
44189;SDS011;29856;52.144;5.430;2023-03-01T16:17:59;6.00;;;4.45;;
44189;SDS011;29856;52.144;5.430;2023-03-01T16:20:24;7.00;;;4.10;;
44189;SDS011;29856;52.144;5.430;2023-03-01T16:22:50;7.22;;;4.28;;
44189;SDS011;29856;52.144;5.430;2023-03-01T16:25:17;6.80;;;4.15;;
44189;SDS011;29856;52.144;5.430;2023-03-01T16:27:48;7.20;;;4.03;;
44189;SDS011;29856;52.144;5.430;2023-03-01T16:30:16;5.72;;;4.00;;
44189;SDS011;29856;52.144;5.430;2023-03-01T16:32:46;6.57;;;4.15;;
44189;SDS011;29856;52.144;5.430;2023-03-01T16:35:14;9.02;;;4.28;;
44189;SDS011;29856;52.144;5.430;2023-03-01T16:37:41;6.50;;;3.63;;